createdAt,value
2018-04-06T00:00:02.925Z,99.29
2018-04-06T00:01:03.207Z,99.15
2018-04-06T00:02:02.965Z,99.19
2018-04-06T00:03:03.021Z,99.38
2018-04-06T00:04:03.222Z,99.38
2018-04-06T00:05:02.888Z,99.76
2018-04-06T00:06:02.950Z,99.57
2018-04-06T00:07:03.038Z,99.95
2018-04-06T00:08:03.080Z,99.76
2018-04-06T00:09:02.664Z,99.85
2018-04-06T00:10:03.180Z,99.99
2018-04-06T00:11:02.613Z,99.99
2018-04-06T00:12:02.511Z,99.99
2018-04-06T00:13:02.582Z,99.99
2018-04-06T00:14:02.740Z,99.99
2018-04-06T00:15:02.448Z,99.99
2018-04-06T00:16:02.711Z,99.99
2018-04-06T00:17:02.365Z,99.99
2018-04-06T00:18:02.437Z,99.99
2018-04-06T00:19:02.384Z,99.99
2018-04-06T00:20:02.376Z,99.99
2018-04-06T00:21:02.414Z,99.99
2018-04-06T00:22:02.737Z,99.99
2018-04-06T00:23:02.346Z,99.99
2018-04-06T00:24:02.765Z,99.99
2018-04-06T00:25:02.463Z,99.99
2018-04-06T00:26:02.287Z,99.99
2018-04-06T00:27:02.291Z,99.99
2018-04-06T00:28:02.365Z,99.99
2018-04-06T00:29:02.168Z,99.99
2018-04-06T00:30:02.138Z,99.99
2018-04-06T00:31:01.878Z,99.99
2018-04-06T00:32:02.000Z,99.99
2018-04-06T00:33:02.056Z,99.99
2018-04-06T00:34:02.687Z,99.99
2018-04-06T00:36:03.327Z,99.99
2018-04-06T00:37:03.522Z,99.99
2018-04-06T00:38:02.003Z,99.99
2018-04-06T00:39:02.127Z,99.99
2018-04-06T00:40:02.080Z,99.99
2018-04-06T00:41:02.254Z,99.99
2018-04-06T00:42:01.822Z,99.99
2018-04-06T00:43:02.186Z,99.99
2018-04-06T00:44:01.510Z,99.99
2018-04-06T00:45:01.866Z,99.99
2018-04-06T00:46:01.458Z,99.99
2018-04-06T00:47:01.458Z,99.99
2018-04-06T00:48:01.763Z,99.99
2018-04-06T00:49:01.446Z,99.99
2018-04-06T00:50:01.367Z,99.99
2018-04-06T00:51:01.423Z,99.99
2018-04-06T00:52:01.333Z,99.99
2018-04-06T00:53:01.289Z,99.99
2018-04-06T00:54:01.489Z,99.99
2018-04-06T00:55:01.918Z,99.99
2018-04-06T00:56:01.467Z,99.99
2018-04-06T00:57:01.205Z,99.99
2018-04-06T00:58:01.229Z,99.99
2018-04-06T00:59:01.400Z,99.99
2018-04-06T01:00:01.315Z,99.99
2018-04-06T01:01:01.156Z,99.99
2018-04-06T01:02:01.381Z,99.99
2018-04-06T01:03:01.401Z,99.99
2018-04-06T01:04:01.574Z,99.99
2018-04-06T01:05:01.066Z,99.99
2018-04-06T01:06:01.051Z,99.99
2018-04-06T01:07:01.494Z,99.99
2018-04-06T01:08:01.074Z,99.99
2018-04-06T01:09:01.216Z,99.99
2018-04-06T01:10:00.961Z,99.99
2018-04-06T01:11:00.885Z,99.99
2018-04-06T01:12:00.847Z,99.99
2018-04-06T01:13:00.878Z,99.99
2018-04-06T01:14:00.803Z,99.99
2018-04-06T01:15:00.962Z,99.99
2018-04-06T01:16:01.059Z,99.99
2018-04-06T01:17:00.732Z,99.99
2018-04-06T01:18:00.709Z,99.99
2018-04-06T01:19:00.749Z,99.99
2018-04-06T01:20:00.672Z,99.99
2018-04-06T01:21:01.637Z,99.99
2018-04-06T01:22:00.612Z,99.99
2018-04-06T01:23:00.899Z,99.99
2018-04-06T01:24:00.572Z,99.99
2018-04-06T01:25:00.598Z,99.99
2018-04-06T01:26:00.564Z,99.99
2018-04-06T01:27:00.495Z,99.99
2018-04-06T01:28:00.468Z,99.99
2018-04-06T01:29:00.757Z,99.99
2018-04-06T01:30:00.466Z,99.99
2018-04-06T01:31:00.446Z,99.99
2018-04-06T01:32:00.372Z,99.99
2018-04-06T01:33:00.360Z,99.99
2018-04-06T01:34:00.424Z,99.99
2018-04-06T01:35:00.711Z,99.99
2018-04-06T01:36:05.322Z,99.99
2018-04-06T01:37:00.414Z,99.99
2018-04-06T01:38:00.239Z,99.99
2018-04-06T01:39:00.208Z,99.99
2018-04-06T01:40:00.295Z,99.99
2018-04-06T01:41:01.492Z,99.99
2018-04-06T01:42:00.137Z,99.99
2018-04-06T01:43:00.166Z,99.99
2018-04-06T01:44:00.374Z,99.99
2018-04-06T01:45:00.158Z,99.99
2018-04-06T01:46:00.486Z,99.99
2018-04-06T01:47:00.327Z,99.99
2018-04-06T01:47:59.987Z,99.99
2018-04-06T01:49:00.129Z,99.99
2018-04-06T01:49:59.946Z,99.99
2018-04-06T01:51:00.028Z,99.99
2018-04-06T01:51:59.907Z,99.99
2018-04-06T01:53:00.212Z,99.99
2018-04-06T01:53:59.861Z,99.99
2018-04-06T01:54:59.879Z,99.99
2018-04-06T01:55:59.802Z,99.99
2018-04-06T01:56:59.864Z,99.99
2018-04-06T01:57:59.851Z,99.99
2018-04-06T01:59:00.086Z,99.99
2018-04-06T01:59:59.760Z,99.99
2018-04-06T02:00:59.733Z,99.99
2018-04-06T02:01:59.658Z,99.99
2018-04-06T02:02:59.857Z,99.99
2018-04-06T02:03:59.904Z,99.99
2018-04-06T02:05:00.223Z,99.99
2018-04-06T02:06:00.057Z,99.99
2018-04-06T02:06:59.650Z,99.99
2018-04-06T02:07:59.516Z,99.99
2018-04-06T02:08:59.502Z,99.99
2018-04-06T02:09:59.467Z,99.99
2018-04-06T02:10:59.627Z,99.99
2018-04-06T02:13:59.743Z,99.99
2018-04-06T02:14:59.357Z,99.99
2018-04-06T02:15:59.337Z,99.99
2018-04-06T02:16:59.362Z,99.99
2018-04-06T02:17:59.289Z,99.99
2018-04-06T02:18:59.414Z,99.99
2018-04-06T02:19:59.290Z,99.99
2018-04-06T02:20:59.615Z,99.99
2018-04-06T02:21:59.231Z,99.99
2018-04-06T02:22:59.349Z,99.99
2018-04-06T02:23:59.133Z,99.99
2018-04-06T02:24:59.173Z,99.99
2018-04-06T02:25:59.144Z,99.99
2018-04-06T02:26:59.082Z,99.99
2018-04-06T02:27:59.352Z,99.99
2018-04-06T02:29:59.173Z,99.99
2018-04-06T02:30:58.974Z,99.99
2018-04-06T02:31:59.003Z,99.99
2018-04-06T02:32:59.011Z,99.99
2018-04-06T02:33:58.910Z,99.99
2018-04-06T02:34:59.240Z,99.99
2018-04-06T02:35:58.963Z,99.99
2018-04-06T02:36:58.830Z,99.99
2018-04-06T02:37:58.861Z,99.99
2018-04-06T02:38:58.796Z,99.99
2018-04-06T02:39:58.769Z,99.99
2018-04-06T02:40:58.736Z,99.99
2018-04-06T02:41:59.015Z,99.99
2018-04-06T02:42:58.698Z,99.99
2018-04-06T02:43:58.717Z,99.99
2018-04-06T02:44:58.641Z,99.99
2018-04-06T02:45:58.970Z,99.99
2018-04-06T02:46:58.599Z,99.99
2018-04-06T02:47:58.872Z,99.99
2018-04-06T02:48:58.552Z,99.99
2018-04-06T02:49:58.670Z,99.99
2018-04-06T02:50:58.500Z,99.99
2018-04-06T02:52:58.441Z,99.99
2018-04-06T02:53:58.429Z,99.99
2018-04-06T02:54:58.702Z,99.99
2018-04-06T02:55:58.482Z,99.99
2018-04-06T02:56:58.604Z,99.99
2018-04-06T02:57:58.434Z,99.99
2018-04-06T02:58:58.475Z,99.99
2018-04-06T02:59:58.396Z,99.99
2018-04-06T03:00:58.613Z,99.99
2018-04-06T03:01:58.281Z,99.99
2018-04-06T03:02:58.298Z,99.99
2018-04-06T03:03:58.183Z,99.99
2018-04-06T03:04:58.360Z,99.99
2018-04-06T03:05:58.140Z,99.99
2018-04-06T03:06:58.415Z,99.99
2018-04-06T03:07:58.204Z,99.99
2018-04-06T03:08:58.075Z,99.99
2018-04-06T03:09:58.046Z,99.99
2018-04-06T03:10:58.025Z,99.99
2018-04-06T03:11:57.992Z,99.99
2018-04-06T03:12:58.294Z,99.99
2018-04-06T03:13:57.998Z,99.99
2018-04-06T03:14:57.959Z,99.99
2018-04-06T03:15:57.896Z,99.99
2018-04-06T03:16:57.867Z,99.99
2018-04-06T03:17:57.919Z,99.99
2018-04-06T03:18:58.124Z,99.99
2018-04-06T03:19:57.882Z,99.99
2018-04-06T03:20:58.059Z,99.99
2018-04-06T03:21:57.805Z,99.99
2018-04-06T03:22:57.728Z,99.99
2018-04-06T03:23:57.695Z,99.99
2018-04-06T03:24:58.357Z,99.99
2018-04-06T03:25:57.752Z,99.99
2018-04-06T03:26:57.630Z,99.99
2018-04-06T03:27:57.812Z,99.99
2018-04-06T03:28:57.683Z,99.99
2018-04-06T03:29:57.580Z,99.99
2018-04-06T03:30:57.695Z,99.99
2018-04-06T03:31:57.830Z,99.99
2018-04-06T03:32:57.480Z,99.99
2018-04-06T03:33:57.457Z,99.99
2018-04-06T03:34:57.628Z,99.99
2018-04-06T03:35:57.412Z,99.99
2018-04-06T03:36:57.392Z,99.99
2018-04-06T03:37:57.414Z,99.99
2018-04-06T03:38:57.645Z,99.99
2018-04-06T03:39:57.734Z,99.99
2018-04-06T03:40:57.378Z,99.99
2018-04-06T03:41:57.448Z,99.99
2018-04-06T03:42:57.329Z,99.99
2018-04-06T03:43:57.354Z,99.99
2018-04-06T03:44:57.200Z,99.99
2018-04-06T03:45:57.475Z,99.99
2018-04-06T03:47:57.124Z,99.99
2018-04-06T03:48:57.108Z,99.99
2018-04-06T03:49:57.122Z,99.99
2018-04-06T03:50:57.100Z,99.99
2018-04-06T03:51:57.028Z,99.99
2018-04-06T03:52:57.305Z,99.99
2018-04-06T03:53:57.007Z,99.99
2018-04-06T03:54:56.958Z,99.99
2018-04-06T03:55:56.973Z,99.99
2018-04-06T03:56:56.950Z,99.99
2018-04-06T03:57:57.042Z,99.99
2018-04-06T03:59:57.293Z,99.99
2018-04-06T04:00:56.808Z,99.99
2018-04-06T04:01:57.095Z,99.99
2018-04-06T04:02:56.966Z,99.99
2018-04-06T04:03:56.894Z,99.99
2018-04-06T04:04:56.880Z,99.99
2018-04-06T04:05:56.839Z,99.99
2018-04-06T04:06:57.145Z,99.99
2018-04-06T04:07:56.711Z,99.99
2018-04-06T04:08:56.614Z,99.99
2018-04-06T04:09:56.588Z,99.99
2018-04-06T04:10:56.575Z,99.99
2018-04-06T04:11:56.570Z,99.99
2018-04-06T04:12:56.868Z,99.99
2018-04-06T04:13:56.596Z,99.99
2018-04-06T04:14:56.543Z,99.99
2018-04-06T04:15:56.440Z,99.99
2018-04-06T04:16:56.421Z,99.99
2018-04-06T04:17:56.446Z,99.99
2018-04-06T04:18:56.747Z,99.99
2018-04-06T04:19:56.398Z,99.99
2018-04-06T04:20:56.321Z,99.99
2018-04-06T04:21:56.295Z,99.99
2018-04-06T04:22:56.301Z,99.99
2018-04-06T04:23:56.254Z,99.99
2018-04-06T04:24:56.514Z,99.99
2018-04-06T04:25:56.251Z,99.99
2018-04-06T04:26:56.178Z,99.99
2018-04-06T04:27:56.159Z,99.99
2018-04-06T04:28:56.123Z,99.99
2018-04-06T04:29:56.114Z,99.99
2018-04-06T04:30:56.378Z,99.99
2018-04-06T04:31:56.248Z,99.99
2018-04-06T04:32:56.083Z,99.99
2018-04-06T04:33:56.053Z,99.99
2018-04-06T04:34:55.988Z,99.99
2018-04-06T04:35:56.129Z,99.99
2018-04-06T04:36:56.368Z,99.99
2018-04-06T04:38:55.973Z,99.99
2018-04-06T04:39:56.064Z,99.99
2018-04-06T04:41:56.024Z,99.99
2018-04-06T04:42:55.862Z,99.99
2018-04-06T04:44:56.217Z,99.99
2018-04-06T04:45:55.759Z,99.99
2018-04-06T04:46:56.409Z,99.99
2018-04-06T04:47:55.741Z,99.99
2018-04-06T04:48:55.836Z,99.99
2018-04-06T04:49:55.694Z,99.99
2018-04-06T04:50:55.644Z,99.99
2018-04-06T04:51:55.923Z,99.99
2018-04-06T04:54:55.578Z,99.99
2018-04-06T04:55:55.582Z,99.99
2018-04-06T04:56:57.115Z,99.99
2018-04-06T04:57:55.413Z,99.99
2018-04-06T04:58:55.693Z,99.99
2018-04-06T04:59:55.372Z,99.99
2018-04-06T05:00:55.355Z,99.99
2018-04-06T05:01:55.428Z,99.99
2018-04-06T05:02:55.353Z,99.99
2018-04-06T05:03:55.317Z,99.99
2018-04-06T05:04:55.305Z,99.99
2018-04-06T05:05:55.523Z,99.99
2018-04-06T05:06:55.191Z,99.99
2018-04-06T05:07:55.172Z,99.99
2018-04-06T05:08:55.191Z,99.99
2018-04-06T05:09:55.168Z,99.99
2018-04-06T05:10:55.138Z,99.99
2018-04-06T05:11:55.253Z,99.99
2018-04-06T05:12:55.052Z,99.99
2018-04-06T05:13:55.028Z,99.99
2018-04-06T05:14:55.052Z,99.99
2018-04-06T05:15:54.973Z,99.99
2018-04-06T05:16:55.114Z,99.99
2018-04-06T05:17:54.929Z,99.99
2018-04-06T05:18:55.202Z,99.99
2018-04-06T05:19:55.328Z,99.99
2018-04-06T05:20:55.150Z,99.99
2018-04-06T05:21:54.849Z,99.99
2018-04-06T05:22:54.817Z,99.99
2018-04-06T05:23:54.781Z,99.99
2018-04-06T05:24:54.760Z,99.99
2018-04-06T05:25:55.117Z,99.99
2018-04-06T05:26:54.759Z,99.99
2018-04-06T05:27:54.695Z,99.99
2018-04-06T05:28:54.652Z,99.99
2018-04-06T05:29:54.631Z,99.99
2018-04-06T05:30:54.602Z,99.99
2018-04-06T05:31:54.582Z,99.99
2018-04-06T05:32:54.616Z,99.99
2018-04-06T05:33:54.802Z,99.99
2018-04-06T05:34:54.581Z,99.99
2018-04-06T05:35:54.498Z,99.99
2018-04-06T05:36:54.479Z,99.99
2018-04-06T05:37:54.791Z,99.99
2018-04-06T05:38:55.102Z,99.99
2018-04-06T05:39:54.394Z,99.99
2018-04-06T05:40:54.365Z,99.99
2018-04-06T05:41:54.364Z,99.99
2018-04-06T05:42:54.323Z,99.99
2018-04-06T05:43:54.308Z,99.99
2018-04-06T05:44:54.626Z,99.99
2018-04-06T05:45:54.253Z,99.99
2018-04-06T05:46:54.220Z,99.99
2018-04-06T05:47:54.194Z,99.99
2018-04-06T05:48:54.231Z,99.99
2018-04-06T05:49:54.156Z,99.99
2018-04-06T05:50:54.485Z,99.99
2018-04-06T05:51:54.107Z,99.99
2018-04-06T05:52:54.084Z,99.99
2018-04-06T05:53:54.828Z,99.99
2018-04-06T05:55:54.161Z,99.99
2018-04-06T05:56:54.179Z,99.99
2018-04-06T05:57:54.401Z,99.99
2018-04-06T05:58:54.256Z,99.99
2018-04-06T05:59:54.087Z,99.99
2018-04-06T06:00:54.212Z,99.99
2018-04-06T06:01:54.420Z,99.99
2018-04-06T06:02:53.892Z,99.99
2018-04-06T06:03:54.129Z,99.99
2018-04-06T06:04:53.801Z,99.99
2018-04-06T06:05:53.778Z,99.99
2018-04-06T06:06:53.752Z,99.99
2018-04-06T06:07:54.187Z,99.99
2018-04-06T06:08:54.001Z,99.99
2018-04-06T06:09:54.177Z,99.99
2018-04-06T06:10:54.021Z,99.99
2018-04-06T06:11:54.038Z,99.99
2018-04-06T06:12:53.995Z,99.99
2018-04-06T06:13:54.168Z,99.99
2018-04-06T06:14:54.171Z,99.99
2018-04-06T06:15:53.677Z,99.99
2018-04-06T06:16:54.084Z,99.99
2018-04-06T06:17:53.660Z,99.99
2018-04-06T06:18:53.672Z,99.99
2018-04-06T06:19:53.455Z,99.99
2018-04-06T06:20:53.483Z,99.99
2018-04-06T06:21:53.485Z,99.99
2018-04-06T06:22:53.689Z,99.99
2018-04-06T06:23:53.366Z,99.99
2018-04-06T06:24:53.347Z,99.99
2018-04-06T06:26:53.346Z,99.99
2018-04-06T06:27:53.271Z,99.99
2018-04-06T06:28:53.248Z,99.99
2018-04-06T06:29:53.533Z,99.99
2018-04-06T06:30:53.566Z,99.99
2018-04-06T06:31:53.378Z,99.99
2018-04-06T06:32:53.309Z,99.99
2018-04-06T06:33:53.482Z,99.99
2018-04-06T06:34:53.249Z,99.99
2018-04-06T06:35:53.545Z,99.99
2018-04-06T06:36:53.280Z,99.99
2018-04-06T06:37:53.257Z,99.99
2018-04-06T06:38:53.112Z,99.99
2018-04-06T06:39:52.997Z,99.99
2018-04-06T06:40:53.048Z,99.99
2018-04-06T06:41:53.222Z,99.72
2018-04-06T06:42:53.256Z,99.34
2018-04-06T06:43:52.914Z,99.15
2018-04-06T06:44:52.949Z,99.34
2018-04-06T06:45:52.873Z,98.87
2018-04-06T06:46:52.851Z,98.49
2018-04-06T06:47:52.835Z,98.68
2018-04-06T06:48:52.825Z,98.11
2018-04-06T06:49:53.085Z,98.49
2018-04-06T06:50:52.812Z,98.58
2018-04-06T06:51:52.795Z,98.30
2018-04-06T06:52:52.730Z,98.11
2018-04-06T06:53:52.706Z,97.92
2018-04-06T06:54:52.678Z,98.35
2018-04-06T06:55:52.664Z,98.07
2018-04-06T06:56:52.989Z,98.07
2018-04-06T06:57:52.616Z,97.40
2018-04-06T06:58:52.595Z,96.83
2018-04-06T06:59:52.570Z,97.12
2018-04-06T07:00:52.576Z,96.73
2018-04-06T07:01:52.528Z,96.83
2018-04-06T07:02:52.855Z,96.17
2018-04-06T07:03:52.487Z,95.79
2018-04-06T07:04:52.466Z,95.31
2018-04-06T07:05:52.435Z,95.41
2018-04-06T07:06:52.478Z,94.74
2018-04-06T07:07:52.436Z,94.79
2018-04-06T07:08:52.793Z,95.46
2018-04-06T07:09:52.412Z,94.60
2018-04-06T07:10:52.374Z,94.03
2018-04-06T07:11:52.313Z,93.18
2018-04-06T07:12:52.317Z,93.46
2018-04-06T07:13:52.462Z,93.56
2018-04-06T07:14:52.319Z,92.14
2018-04-06T07:15:52.740Z,92.90
2018-04-06T07:16:52.405Z,92.42
2018-04-06T07:17:52.252Z,91.56
2018-04-06T07:18:52.175Z,91.19
2018-04-06T07:19:52.326Z,90.90
2018-04-06T07:20:52.435Z,91.66
2018-04-06T07:21:52.732Z,91.75
2018-04-06T07:22:52.328Z,92.23
2018-04-06T07:23:52.384Z,92.18
2018-04-06T07:24:52.105Z,91.42
2018-04-06T07:25:52.157Z,90.00
2018-04-06T07:26:52.113Z,88.76
2018-04-06T07:27:52.302Z,87.82
2018-04-06T07:28:51.978Z,86.72
2018-04-06T07:29:52.001Z,84.10
2018-04-06T07:31:51.995Z,79.72
2018-04-06T07:32:51.956Z,78.61
2018-04-06T07:33:51.876Z,77.19
2018-04-06T07:34:52.208Z,75.19
2018-04-06T07:35:51.842Z,75.09
2018-04-06T07:36:51.812Z,73.89
2018-04-06T07:37:51.948Z,74.08
2018-04-06T07:38:51.833Z,73.89
2018-04-06T07:39:51.901Z,73.47
2018-04-06T07:40:52.231Z,73.41
2018-04-06T07:41:51.721Z,72.75
2018-04-06T07:42:52.032Z,71.98
2018-04-06T07:43:51.683Z,69.83
2018-04-06T07:44:51.709Z,69.32
2018-04-06T07:45:51.651Z,71.22
2018-04-06T07:46:51.941Z,71.42
2018-04-06T07:47:51.619Z,70.97
2018-04-06T07:48:51.598Z,69.39
2018-04-06T07:49:51.570Z,67.46
2018-04-06T07:50:51.606Z,65.64
2018-04-06T07:51:51.548Z,63.70
2018-04-06T07:52:52.105Z,63.96
2018-04-06T07:53:51.511Z,62.34
2018-04-06T07:54:51.486Z,62.52
2018-04-06T07:55:51.776Z,62.72
2018-04-06T07:56:51.677Z,62.72
2018-04-06T07:57:51.820Z,62.37
2018-04-06T07:58:51.722Z,62.62
2018-04-06T07:59:51.410Z,62.15
2018-04-06T08:00:51.473Z,61.41
2018-04-06T08:01:51.469Z,60.27
2018-04-06T08:02:51.422Z,60.36
2018-04-06T08:03:51.355Z,59.99
2018-04-06T08:04:51.334Z,59.06
2018-04-06T08:05:51.625Z,57.46
2018-04-06T08:06:51.302Z,56.70
2018-04-06T08:07:51.286Z,55.96
2018-04-06T08:08:51.324Z,54.82
2018-04-06T08:09:51.260Z,54.08
2018-04-06T08:10:51.244Z,54.34
2018-04-06T08:11:51.525Z,54.91
2018-04-06T08:12:51.220Z,54.91
2018-04-06T08:13:51.216Z,54.06
2018-04-06T08:14:51.401Z,52.94
2018-04-06T08:15:51.171Z,52.58
2018-04-06T08:16:51.158Z,50.64
2018-04-06T08:17:51.138Z,50.28
2018-04-06T08:18:51.434Z,52.31
2018-04-06T08:19:51.520Z,52.69
2018-04-06T08:20:51.149Z,52.03
2018-04-06T08:21:51.086Z,53.14
2018-04-06T08:22:51.354Z,53.84
2018-04-06T08:23:51.203Z,52.43
2018-04-06T08:24:51.455Z,51.86
2018-04-06T08:25:51.228Z,51.57
2018-04-06T08:26:51.366Z,50.45
2018-04-06T08:27:51.005Z,49.16
2018-04-06T08:28:51.438Z,48.23
2018-04-06T08:29:51.021Z,46.80
2018-04-06T08:30:51.265Z,47.06
2018-04-06T08:31:51.136Z,46.96
2018-04-06T08:32:50.994Z,47.52
2018-04-06T08:33:51.064Z,48.04
2018-04-06T08:34:50.930Z,50.59
2018-04-06T08:35:51.114Z,49.95
2018-04-06T08:36:51.150Z,48.71
2018-04-06T08:37:50.891Z,48.54
2018-04-06T08:38:51.204Z,48.07
2018-04-06T08:39:51.055Z,47.49
2018-04-06T08:40:50.856Z,47.13
2018-04-06T08:41:50.854Z,46.67
2018-04-06T08:42:51.127Z,45.81
2018-04-06T08:43:50.813Z,47.13
2018-04-06T08:44:50.851Z,48.16
2018-04-06T08:45:50.790Z,48.64
2018-04-06T08:46:51.076Z,49.02
2018-04-06T08:47:50.854Z,48.54
2018-04-06T08:48:51.118Z,46.96
2018-04-06T08:49:50.963Z,46.77
2018-04-06T08:50:50.787Z,46.67
2018-04-06T08:51:50.851Z,46.46
2018-04-06T08:52:50.774Z,44.09
2018-04-06T08:53:50.703Z,44.57
2018-04-06T08:54:50.995Z,46.63
2018-04-06T08:55:50.673Z,46.53
2018-04-06T08:56:50.924Z,46.99
2018-04-06T08:57:50.660Z,48.64
2018-04-06T08:58:50.665Z,48.11
2018-04-06T08:59:50.635Z,47.71
2018-04-06T09:00:50.930Z,49.23
2018-04-06T09:01:50.618Z,49.52
2018-04-06T09:02:50.740Z,49.95
2018-04-06T09:03:50.681Z,50.09
2018-04-06T09:04:50.672Z,49.35
2018-04-06T09:05:50.580Z,48.78
2018-04-06T09:06:50.869Z,48.38
2018-04-06T09:07:50.638Z,48.95
2018-04-06T09:08:50.596Z,48.59
2018-04-06T09:09:50.546Z,47.94
2018-04-06T09:10:50.580Z,45.91
2018-04-06T09:11:50.673Z,45.34
2018-04-06T09:12:50.810Z,45.31
2018-04-06T09:13:50.498Z,46.84
2018-04-06T09:14:50.937Z,47.34
2018-04-06T09:15:50.803Z,47.16
2018-04-06T09:16:50.787Z,46.98
2018-04-06T09:17:50.768Z,44.12
2018-04-06T09:18:50.450Z,44.13
2018-04-06T09:19:50.978Z,43.39
2018-04-06T09:20:50.495Z,42.27
2018-04-06T09:21:50.443Z,42.72
2018-04-06T09:22:50.518Z,43.66
2018-04-06T09:23:50.468Z,43.85
2018-04-06T09:24:50.412Z,43.76
2018-04-06T09:25:50.385Z,43.77
2018-04-06T09:26:50.727Z,43.47
2018-04-06T09:27:50.374Z,45.45
2018-04-06T09:28:50.355Z,47.13
2018-04-06T09:29:50.346Z,47.63
2018-04-06T09:30:50.343Z,46.41
2018-04-06T09:31:50.384Z,45.84
2018-04-06T09:32:50.372Z,45.29
2018-04-06T09:33:50.612Z,45.91
2018-04-06T09:34:50.302Z,45.24
2018-04-06T09:35:50.313Z,44.86
2018-04-06T09:36:50.297Z,44.40
2018-04-06T09:37:50.290Z,42.22
2018-04-06T09:38:50.335Z,41.89
2018-04-06T09:39:50.294Z,42.56
2018-04-06T09:40:50.851Z,41.99
2018-04-06T09:41:50.449Z,43.04
2018-04-06T09:42:50.256Z,42.11
2018-04-06T09:43:50.538Z,42.03
2018-04-06T09:44:50.590Z,41.48
2018-04-06T09:45:50.439Z,41.44
2018-04-06T09:46:50.312Z,43.59
2018-04-06T09:47:50.612Z,41.86
2018-04-06T09:48:50.395Z,42.22
2018-04-06T09:49:50.215Z,41.38
2018-04-06T09:50:50.238Z,42.22
2018-04-06T09:51:50.176Z,41.94
2018-04-06T09:52:50.169Z,41.82
2018-04-06T09:53:50.487Z,42.27
2018-04-06T09:54:50.173Z,42.41
2018-04-06T09:55:50.155Z,41.38
2018-04-06T09:56:50.191Z,40.25
2018-04-06T09:57:50.300Z,40.37
2018-04-06T09:58:50.282Z,39.22
2018-04-06T09:59:50.432Z,38.74
2018-04-06T10:00:50.268Z,39.22
2018-04-06T10:01:50.201Z,38.74
2018-04-06T10:02:50.155Z,37.65
2018-04-06T10:03:50.096Z,39.16
2018-04-06T10:04:50.090Z,40.33
2018-04-06T10:05:50.384Z,39.29
2018-04-06T10:06:50.104Z,38.56
2018-04-06T10:07:50.076Z,37.87
2018-04-06T10:08:50.237Z,37.85
2018-04-06T10:09:50.058Z,39.01
2018-04-06T10:10:50.123Z,39.29
2018-04-06T10:11:50.412Z,39.31
2018-04-06T10:12:50.047Z,38.78
2018-04-06T10:13:50.037Z,38.10
2018-04-06T10:14:50.199Z,36.38
2018-04-06T10:15:50.023Z,36.65
2018-04-06T10:16:50.022Z,36.74
2018-04-06T10:17:50.305Z,36.28
2018-04-06T10:18:50.030Z,36.47
2018-04-06T10:19:49.997Z,36.95
2018-04-06T10:20:50.047Z,36.28
2018-04-06T10:21:50.199Z,36.38
2018-04-06T10:22:49.979Z,36.40
2018-04-06T10:23:50.287Z,38.53
2018-04-06T10:24:50.070Z,38.68
2018-04-06T10:25:50.078Z,40.19
2018-04-06T10:26:50.027Z,40.19
2018-04-06T10:27:49.965Z,39.56
2018-04-06T10:28:49.962Z,38.68
2018-04-06T10:29:50.262Z,38.62
2018-04-06T10:30:49.955Z,37.76
2018-04-06T10:31:49.948Z,36.24
2018-04-06T10:32:49.983Z,36.09
2018-04-06T10:33:49.932Z,35.14
2018-04-06T10:34:49.964Z,35.34
2018-04-06T10:35:49.916Z,36.41
2018-04-06T10:36:50.207Z,35.36
2018-04-06T10:37:50.122Z,34.42
2018-04-06T10:38:50.016Z,36.13
2018-04-06T10:39:50.112Z,36.72
2018-04-06T10:40:49.891Z,36.11
2018-04-06T10:41:49.911Z,35.53
2018-04-06T10:42:50.229Z,35.16
2018-04-06T10:43:49.891Z,33.91
2018-04-06T10:44:50.172Z,34.06
2018-04-06T10:45:49.880Z,35.63
2018-04-06T10:46:50.464Z,35.88
2018-04-06T10:47:50.386Z,36.99
2018-04-06T10:48:50.194Z,38.87
2018-04-06T10:49:49.858Z,40.00
2018-04-06T10:50:49.915Z,40.59
2018-04-06T10:51:49.863Z,40.16
2018-04-06T10:52:50.202Z,39.12
2018-04-06T10:53:50.227Z,37.87
2018-04-06T10:54:50.244Z,37.40
2018-04-06T10:55:49.837Z,36.91
2018-04-06T10:56:49.896Z,36.65
2018-04-06T10:57:49.841Z,35.03
2018-04-06T10:58:49.833Z,35.69
2018-04-06T10:59:49.837Z,36.59
2018-04-06T11:00:50.116Z,38.41
2018-04-06T11:01:49.809Z,38.62
2018-04-06T11:02:49.864Z,37.62
2018-04-06T11:03:49.875Z,36.11
2018-04-06T11:04:50.135Z,35.36
2018-04-06T11:05:49.809Z,33.90
2018-04-06T11:06:50.094Z,33.53
2018-04-06T11:07:49.792Z,34.75
2018-04-06T11:08:49.836Z,35.49
2018-04-06T11:09:49.785Z,34.19
2018-04-06T11:10:49.783Z,35.34
2018-04-06T11:11:49.764Z,34.01
2018-04-06T11:12:50.066Z,33.80
2018-04-06T11:13:49.772Z,33.05
2018-04-06T11:14:49.933Z,32.82
2018-04-06T11:15:49.787Z,33.98
2018-04-06T11:17:49.742Z,35.48
2018-04-06T11:18:49.881Z,34.92
2018-04-06T11:19:50.001Z,35.71
2018-04-06T11:20:49.817Z,35.71
2018-04-06T11:21:49.740Z,34.44
2018-04-06T11:22:49.742Z,34.07
2018-04-06T11:23:49.735Z,33.96
2018-04-06T11:24:49.776Z,34.84
2018-04-06T11:25:50.041Z,34.20
2018-04-06T11:26:49.770Z,31.34
2018-04-06T11:28:01.261Z,31.24
2018-04-06T11:28:49.708Z,31.03
2018-04-06T11:29:49.928Z,32.38
2018-04-06T11:30:49.975Z,31.51
2018-04-06T11:31:50.295Z,32.12
2018-04-06T11:32:50.158Z,31.15
2018-04-06T11:33:49.704Z,31.46
2018-04-06T11:34:49.802Z,31.18
2018-04-06T11:35:49.698Z,30.58
2018-04-06T11:36:49.694Z,31.74
2018-04-06T11:37:49.696Z,31.65
2018-04-06T11:38:49.743Z,30.98
2018-04-06T11:39:49.987Z,30.13
2018-04-06T11:40:49.868Z,28.80
2018-04-06T11:41:49.680Z,28.38
2018-04-06T11:42:49.670Z,29.51
2018-04-06T11:43:49.680Z,29.97
2018-04-06T11:44:49.738Z,30.55
2018-04-06T11:45:50.017Z,30.19
2018-04-06T11:46:49.669Z,29.43
2018-04-06T11:47:49.668Z,28.95
2018-04-06T11:48:49.673Z,29.25
2018-04-06T11:49:49.690Z,30.77
2018-04-06T11:50:49.720Z,32.28
2018-04-06T11:51:49.962Z,32.20
2018-04-06T11:52:49.690Z,32.20
2018-04-06T11:53:49.668Z,30.97
2018-04-06T11:54:49.659Z,30.40
2018-04-06T11:55:49.654Z,31.77
2018-04-06T11:56:49.703Z,30.53
2018-04-06T11:57:49.653Z,28.97
2018-04-06T11:58:50.118Z,26.86
2018-04-06T11:59:49.702Z,27.83
2018-04-06T12:00:49.642Z,28.13
2018-04-06T12:01:49.706Z,27.16
2018-04-06T12:02:49.753Z,27.85
2018-04-06T12:03:49.745Z,29.18
2018-04-06T12:04:49.944Z,30.55
2018-04-06T12:05:49.638Z,30.07
2018-04-06T12:06:49.639Z,29.11
2018-04-06T12:07:49.683Z,29.50
2018-04-06T12:08:49.946Z,28.05
2018-04-06T12:09:49.638Z,26.51
2018-04-06T12:10:49.942Z,26.12
2018-04-06T12:11:49.664Z,26.07
2018-04-06T12:12:49.631Z,28.77
2018-04-06T12:13:49.724Z,28.85
2018-04-06T12:14:49.690Z,27.92
2018-04-06T12:15:49.712Z,28.16
2018-04-06T12:16:49.952Z,28.23
2018-04-06T12:17:49.631Z,29.17
2018-04-06T12:18:49.623Z,30.81
2018-04-06T12:19:49.621Z,31.02
2018-04-06T12:20:49.691Z,31.67
2018-04-06T12:21:49.654Z,32.42
2018-04-06T12:22:49.915Z,32.54
2018-04-06T12:23:49.659Z,32.46
2018-04-06T12:24:49.668Z,31.99
2018-04-06T12:25:49.619Z,31.51
2018-04-06T12:26:49.696Z,31.64
2018-04-06T12:27:49.667Z,30.21
2018-04-06T12:28:49.661Z,29.55
2018-04-06T12:29:49.911Z,28.80
2018-04-06T12:30:49.676Z,28.13
2018-04-06T12:31:49.799Z,28.42
2018-04-06T12:32:49.715Z,28.25
2018-04-06T12:33:49.758Z,26.90
2018-04-06T12:34:49.608Z,27.96
2018-04-06T12:35:49.603Z,28.05
2018-04-06T12:37:49.604Z,29.77
2018-04-06T12:38:49.649Z,30.07
2018-04-06T12:39:49.638Z,29.31
2018-04-06T12:40:49.701Z,27.86
2018-04-06T12:41:49.604Z,29.36
2018-04-06T12:42:49.586Z,30.15
2018-04-06T12:43:49.942Z,31.19
2018-04-06T12:44:49.656Z,33.89
2018-04-06T12:45:49.642Z,33.31
2018-04-06T12:46:49.674Z,32.15
2018-04-06T12:47:49.584Z,30.90
2018-04-06T12:48:49.870Z,30.66
2018-04-06T12:49:49.603Z,31.43
2018-04-06T12:50:49.953Z,32.12
2018-04-06T12:51:49.593Z,31.77
2018-04-06T12:52:49.645Z,30.82
2018-04-06T12:53:49.592Z,29.95
2018-04-06T12:54:49.649Z,30.34
2018-04-06T12:55:49.642Z,29.86
2018-04-06T12:56:49.630Z,30.34
2018-04-06T12:57:49.879Z,30.88
2018-04-06T12:58:49.596Z,32.28
2018-04-06T12:59:49.642Z,33.19
2018-04-06T13:00:49.658Z,34.17
2018-04-06T13:01:49.736Z,34.19
2018-04-06T13:02:49.745Z,33.24
2018-04-06T13:03:49.997Z,33.07
2018-04-06T13:04:49.566Z,31.56
2018-04-06T13:05:49.565Z,31.54
2018-04-06T13:06:49.617Z,32.87
2018-04-06T13:07:49.613Z,33.50
2018-04-06T13:08:49.674Z,35.00